sensor_id;sensor_type;location;lat;lon;timestamp;P1;durP1;ratioP1;P2;durP2;ratioP2
4132;SDS011;2080;51.038;7.008;2022-11-20T00:02:20;323.13;;;70.60;;
4132;SDS011;2080;51.038;7.008;2022-11-20T00:04:45;322.20;;;68.47;;
4132;SDS011;2080;51.038;7.008;2022-11-20T00:07:11;318.80;;;66.10;;
4132;SDS011;2080;51.038;7.008;2022-11-20T00:09:38;329.53;;;75.80;;
4132;SDS011;2080;51.038;7.008;2022-11-20T00:12:04;318.40;;;65.80;;
4132;SDS011;2080;51.038;7.008;2022-11-20T00:14:29;336.13;;;72.03;;
4132;SDS011;2080;51.038;7.008;2022-11-20T00:16:54;318.50;;;72.73;;
4132;SDS011;2080;51.038;7.008;2022-11-20T00:19:22;318.67;;;65.73;;
4132;SDS011;2080;51.038;7.008;2022-11-20T00:21:47;311.90;;;62.13;;
4132;SDS011;2080;51.038;7.008;2022-11-20T00:24:12;319.13;;;60.23;;
4132;SDS011;2080;51.038;7.008;2022-11-20T00:26:37;314.27;;;54.30;;
4132;SDS011;2080;51.038;7.008;2022-11-20T00:29:03;312.33;;;50.23;;
4132;SDS011;2080;51.038;7.008;2022-11-20T00:31:30;312.27;;;56.17;;
4132;SDS011;2080;51.038;7.008;2022-11-20T00:33:55;316.43;;;57.90;;
4132;SDS011;2080;51.038;7.008;2022-11-20T00:36:21;322.30;;;64.93;;
4132;SDS011;2080;51.038;7.008;2022-11-20T00:38:50;315.10;;;72.30;;
4132;SDS011;2080;51.038;7.008;2022-11-20T00:41:16;310.20;;;55.13;;
4132;SDS011;2080;51.038;7.008;2022-11-20T00:43:41;320.20;;;49.20;;
4132;SDS011;2080;51.038;7.008;2022-11-20T00:46:12;309.17;;;43.60;;
4132;SDS011;2080;51.038;7.008;2022-11-20T00:48:40;308.40;;;48.40;;
4132;SDS011;2080;51.038;7.008;2022-11-20T00:51:05;310.80;;;51.37;;
4132;SDS011;2080;51.038;7.008;2022-11-20T00:53:31;301.83;;;43.70;;
4132;SDS011;2080;51.038;7.008;2022-11-20T00:55:57;310.70;;;49.43;;
4132;SDS011;2080;51.038;7.008;2022-11-20T00:58:23;306.10;;;53.20;;
4132;SDS011;2080;51.038;7.008;2022-11-20T01:00:48;315.27;;;50.67;;
4132;SDS011;2080;51.038;7.008;2022-11-20T01:03:16;303.93;;;46.27;;
4132;SDS011;2080;51.038;7.008;2022-11-20T01:05:42;302.87;;;50.30;;
4132;SDS011;2080;51.038;7.008;2022-11-20T01:08:07;314.90;;;57.37;;
4132;SDS011;2080;51.038;7.008;2022-11-20T01:10:32;310.27;;;55.87;;
4132;SDS011;2080;51.038;7.008;2022-11-20T01:12:57;321.07;;;64.73;;
4132;SDS011;2080;51.038;7.008;2022-11-20T01:15:41;315.83;;;60.40;;
4132;SDS011;2080;51.038;7.008;2022-11-20T01:18:06;320.00;;;66.30;;
4132;SDS011;2080;51.038;7.008;2022-11-20T01:20:35;308.33;;;51.87;;
4132;SDS011;2080;51.038;7.008;2022-11-20T01:23:03;323.10;;;54.27;;
4132;SDS011;2080;51.038;7.008;2022-11-20T01:25:31;315.90;;;65.00;;
4132;SDS011;2080;51.038;7.008;2022-11-20T01:27:56;324.30;;;65.77;;
4132;SDS011;2080;51.038;7.008;2022-11-20T01:30:21;315.57;;;60.07;;
4132;SDS011;2080;51.038;7.008;2022-11-20T01:32:46;320.13;;;67.40;;
4132;SDS011;2080;51.038;7.008;2022-11-20T01:35:11;319.37;;;63.03;;
4132;SDS011;2080;51.038;7.008;2022-11-20T01:37:37;332.20;;;68.10;;
4132;SDS011;2080;51.038;7.008;2022-11-20T01:40:02;314.93;;;62.07;;
4132;SDS011;2080;51.038;7.008;2022-11-20T01:42:27;308.80;;;50.90;;
4132;SDS011;2080;51.038;7.008;2022-11-20T01:45:58;310.10;;;49.30;;
4132;SDS011;2080;51.038;7.008;2022-11-20T01:47:59;324.33;;;56.37;;
4132;SDS011;2080;51.038;7.008;2022-11-20T01:50:27;314.27;;;56.87;;
4132;SDS011;2080;51.038;7.008;2022-11-20T01:53:00;323.60;;;50.60;;
4132;SDS011;2080;51.038;7.008;2022-11-20T01:55:34;306.30;;;48.63;;
4132;SDS011;2080;51.038;7.008;2022-11-20T01:58:03;311.63;;;55.00;;
4132;SDS011;2080;51.038;7.008;2022-11-20T02:00:29;314.70;;;52.37;;
4132;SDS011;2080;51.038;7.008;2022-11-20T02:02:56;320.07;;;52.90;;
4132;SDS011;2080;51.038;7.008;2022-11-20T02:05:35;319.00;;;62.00;;
4132;SDS011;2080;51.038;7.008;2022-11-20T02:08:02;317.03;;;66.93;;
4132;SDS011;2080;51.038;7.008;2022-11-20T02:10:27;326.40;;;68.33;;
4132;SDS011;2080;51.038;7.008;2022-11-20T02:12:57;313.33;;;55.57;;
4132;SDS011;2080;51.038;7.008;2022-11-20T02:15:41;323.30;;;53.27;;
4132;SDS011;2080;51.038;7.008;2022-11-20T02:18:07;316.73;;;57.00;;
4132;SDS011;2080;51.038;7.008;2022-11-20T02:20:35;330.43;;;46.67;;
4132;SDS011;2080;51.038;7.008;2022-11-20T02:25:28;320.50;;;53.10;;
4132;SDS011;2080;51.038;7.008;2022-11-20T02:27:55;311.37;;;47.07;;
4132;SDS011;2080;51.038;7.008;2022-11-20T02:30:20;325.03;;;54.17;;
4132;SDS011;2080;51.038;7.008;2022-11-20T02:32:46;318.17;;;59.23;;
4132;SDS011;2080;51.038;7.008;2022-11-20T02:37:42;317.53;;;65.40;;
4132;SDS011;2080;51.038;7.008;2022-11-20T02:40:08;321.70;;;67.63;;
4132;SDS011;2080;51.038;7.008;2022-11-20T02:42:34;316.27;;;69.13;;
4132;SDS011;2080;51.038;7.008;2022-11-20T02:44:59;318.87;;;61.17;;
4132;SDS011;2080;51.038;7.008;2022-11-20T02:47:24;312.43;;;55.47;;
4132;SDS011;2080;51.038;7.008;2022-11-20T02:49:49;310.10;;;55.53;;
4132;SDS011;2080;51.038;7.008;2022-11-20T02:52:17;313.40;;;62.10;;
4132;SDS011;2080;51.038;7.008;2022-11-20T02:54:42;312.30;;;50.20;;
4132;SDS011;2080;51.038;7.008;2022-11-20T02:57:10;316.07;;;61.33;;
4132;SDS011;2080;51.038;7.008;2022-11-20T02:59:35;314.20;;;60.27;;
4132;SDS011;2080;51.038;7.008;2022-11-20T03:02:02;314.27;;;55.30;;
4132;SDS011;2080;51.038;7.008;2022-11-20T03:04:28;306.00;;;51.43;;
4132;SDS011;2080;51.038;7.008;2022-11-20T03:06:53;307.10;;;55.20;;
4132;SDS011;2080;51.038;7.008;2022-11-20T03:09:18;320.30;;;59.07;;
4132;SDS011;2080;51.038;7.008;2022-11-20T03:11:43;316.00;;;62.83;;
4132;SDS011;2080;51.038;7.008;2022-11-20T03:14:10;318.47;;;58.60;;
4132;SDS011;2080;51.038;7.008;2022-11-20T03:16:36;318.93;;;58.30;;
4132;SDS011;2080;51.038;7.008;2022-11-20T03:19:01;315.07;;;58.27;;
4132;SDS011;2080;51.038;7.008;2022-11-20T03:21:28;316.53;;;60.57;;
4132;SDS011;2080;51.038;7.008;2022-11-20T03:23:54;319.17;;;59.73;;
4132;SDS011;2080;51.038;7.008;2022-11-20T03:26:20;317.30;;;57.40;;
4132;SDS011;2080;51.038;7.008;2022-11-20T03:28:47;315.47;;;52.87;;
4132;SDS011;2080;51.038;7.008;2022-11-20T03:31:13;311.17;;;49.57;;
4132;SDS011;2080;51.038;7.008;2022-11-20T03:33:39;309.50;;;53.23;;
4132;SDS011;2080;51.038;7.008;2022-11-20T03:36:13;314.53;;;52.40;;
4132;SDS011;2080;51.038;7.008;2022-11-20T03:38:39;313.17;;;60.43;;
4132;SDS011;2080;51.038;7.008;2022-11-20T03:41:06;314.93;;;54.47;;
4132;SDS011;2080;51.038;7.008;2022-11-20T03:43:32;318.73;;;60.00;;
4132;SDS011;2080;51.038;7.008;2022-11-20T03:45:57;304.60;;;47.67;;
4132;SDS011;2080;51.038;7.008;2022-11-20T03:48:23;331.73;;;75.87;;
4132;SDS011;2080;51.038;7.008;2022-11-20T03:50:48;340.03;;;95.87;;
4132;SDS011;2080;51.038;7.008;2022-11-20T03:53:14;317.83;;;62.63;;
4132;SDS011;2080;51.038;7.008;2022-11-20T03:55:39;303.00;;;47.10;;
4132;SDS011;2080;51.038;7.008;2022-11-20T03:58:07;305.47;;;48.00;;
4132;SDS011;2080;51.038;7.008;2022-11-20T04:00:32;309.40;;;49.17;;
4132;SDS011;2080;51.038;7.008;2022-11-20T04:03:00;311.23;;;49.43;;
4132;SDS011;2080;51.038;7.008;2022-11-20T04:05:25;314.57;;;53.43;;
4132;SDS011;2080;51.038;7.008;2022-11-20T04:07:52;305.97;;;50.10;;
4132;SDS011;2080;51.038;7.008;2022-11-20T04:10:18;306.40;;;50.20;;
4132;SDS011;2080;51.038;7.008;2022-11-20T04:12:43;313.30;;;52.63;;
4132;SDS011;2080;51.038;7.008;2022-11-20T04:15:08;306.37;;;43.47;;
4132;SDS011;2080;51.038;7.008;2022-11-20T04:17:36;307.17;;;48.70;;
4132;SDS011;2080;51.038;7.008;2022-11-20T04:20:04;308.50;;;48.73;;
4132;SDS011;2080;51.038;7.008;2022-11-20T04:22:29;310.80;;;48.47;;
4132;SDS011;2080;51.038;7.008;2022-11-20T04:24:54;319.20;;;52.90;;
4132;SDS011;2080;51.038;7.008;2022-11-20T04:27:19;317.33;;;53.97;;
4132;SDS011;2080;51.038;7.008;2022-11-20T04:29:45;320.27;;;54.67;;
4132;SDS011;2080;51.038;7.008;2022-11-20T04:32:10;307.00;;;51.57;;
4132;SDS011;2080;51.038;7.008;2022-11-20T04:34:35;308.97;;;53.20;;
4132;SDS011;2080;51.038;7.008;2022-11-20T04:37:00;313.03;;;51.37;;
4132;SDS011;2080;51.038;7.008;2022-11-20T04:39:28;306.47;;;52.07;;
4132;SDS011;2080;51.038;7.008;2022-11-20T04:41:54;303.80;;;55.27;;
4132;SDS011;2080;51.038;7.008;2022-11-20T04:44:39;313.20;;;57.90;;
4132;SDS011;2080;51.038;7.008;2022-11-20T04:47:09;325.73;;;67.77;;
4132;SDS011;2080;51.038;7.008;2022-11-20T04:49:34;321.17;;;65.23;;
4132;SDS011;2080;51.038;7.008;2022-11-20T04:51:59;421.97;;;117.47;;
4132;SDS011;2080;51.038;7.008;2022-11-20T04:54:24;338.03;;;73.13;;
4132;SDS011;2080;51.038;7.008;2022-11-20T04:56:50;306.70;;;52.03;;
4132;SDS011;2080;51.038;7.008;2022-11-20T04:59:15;317.30;;;56.60;;
4132;SDS011;2080;51.038;7.008;2022-11-20T05:01:40;317.97;;;57.80;;
4132;SDS011;2080;51.038;7.008;2022-11-20T05:04:05;309.53;;;48.87;;
4132;SDS011;2080;51.038;7.008;2022-11-20T05:06:31;313.20;;;51.33;;
4132;SDS011;2080;51.038;7.008;2022-11-20T05:08:56;320.40;;;60.27;;
4132;SDS011;2080;51.038;7.008;2022-11-20T05:11:21;307.17;;;51.03;;
4132;SDS011;2080;51.038;7.008;2022-11-20T05:13:49;313.20;;;52.73;;
4132;SDS011;2080;51.038;7.008;2022-11-20T05:16:17;303.87;;;50.80;;
4132;SDS011;2080;51.038;7.008;2022-11-20T05:18:43;312.13;;;55.13;;
4132;SDS011;2080;51.038;7.008;2022-11-20T05:21:11;315.23;;;56.33;;
4132;SDS011;2080;51.038;7.008;2022-11-20T05:23:37;313.20;;;52.00;;
4132;SDS011;2080;51.038;7.008;2022-11-20T05:26:02;335.47;;;72.17;;
4132;SDS011;2080;51.038;7.008;2022-11-20T05:28:31;325.43;;;71.17;;
4132;SDS011;2080;51.038;7.008;2022-11-20T05:31:06;338.70;;;88.20;;
4132;SDS011;2080;51.038;7.008;2022-11-20T05:33:34;334.30;;;74.17;;
4132;SDS011;2080;51.038;7.008;2022-11-20T05:35:59;324.93;;;76.13;;
4132;SDS011;2080;51.038;7.008;2022-11-20T05:38:25;304.97;;;54.30;;
4132;SDS011;2080;51.038;7.008;2022-11-20T05:40:52;311.17;;;54.60;;
4132;SDS011;2080;51.038;7.008;2022-11-20T05:43:20;310.07;;;49.50;;
4132;SDS011;2080;51.038;7.008;2022-11-20T05:45:53;315.23;;;51.13;;
4132;SDS011;2080;51.038;7.008;2022-11-20T05:48:19;317.50;;;56.77;;
4132;SDS011;2080;51.038;7.008;2022-11-20T05:50:44;308.73;;;51.33;;
4132;SDS011;2080;51.038;7.008;2022-11-20T05:53:11;305.87;;;49.13;;
4132;SDS011;2080;51.038;7.008;2022-11-20T05:55:36;310.47;;;53.03;;
4132;SDS011;2080;51.038;7.008;2022-11-20T05:58:02;319.70;;;78.20;;
4132;SDS011;2080;51.038;7.008;2022-11-20T06:00:27;326.67;;;77.13;;
4132;SDS011;2080;51.038;7.008;2022-11-20T06:02:52;325.80;;;67.10;;
4132;SDS011;2080;51.038;7.008;2022-11-20T06:05:17;327.03;;;69.07;;
4132;SDS011;2080;51.038;7.008;2022-11-20T06:07:42;307.77;;;54.27;;
4132;SDS011;2080;51.038;7.008;2022-11-20T06:10:10;311.00;;;49.67;;
4132;SDS011;2080;51.038;7.008;2022-11-20T06:12:35;310.33;;;52.70;;
4132;SDS011;2080;51.038;7.008;2022-11-20T06:15:01;314.63;;;52.80;;
4132;SDS011;2080;51.038;7.008;2022-11-20T06:17:26;313.07;;;52.30;;
4132;SDS011;2080;51.038;7.008;2022-11-20T06:19:51;311.30;;;51.67;;
4132;SDS011;2080;51.038;7.008;2022-11-20T06:22:17;308.20;;;52.10;;
4132;SDS011;2080;51.038;7.008;2022-11-20T06:24:44;312.37;;;56.53;;
4132;SDS011;2080;51.038;7.008;2022-11-20T06:27:09;314.70;;;58.07;;
4132;SDS011;2080;51.038;7.008;2022-11-20T06:29:34;318.40;;;58.43;;
4132;SDS011;2080;51.038;7.008;2022-11-20T06:32:00;309.20;;;55.40;;
4132;SDS011;2080;51.038;7.008;2022-11-20T06:34:27;335.37;;;71.40;;
4132;SDS011;2080;51.038;7.008;2022-11-20T06:36:52;329.30;;;76.77;;
4132;SDS011;2080;51.038;7.008;2022-11-20T06:39:18;341.43;;;76.40;;
4132;SDS011;2080;51.038;7.008;2022-11-20T06:41:43;311.13;;;60.23;;
4132;SDS011;2080;51.038;7.008;2022-11-20T06:44:08;317.10;;;64.23;;
4132;SDS011;2080;51.038;7.008;2022-11-20T06:46:33;322.80;;;68.53;;
4132;SDS011;2080;51.038;7.008;2022-11-20T06:48:59;332.63;;;75.70;;
4132;SDS011;2080;51.038;7.008;2022-11-20T06:51:24;346.80;;;81.03;;
4132;SDS011;2080;51.038;7.008;2022-11-20T06:53:49;364.93;;;94.43;;
4132;SDS011;2080;51.038;7.008;2022-11-20T06:56:17;365.93;;;90.47;;
4132;SDS011;2080;51.038;7.008;2022-11-20T06:58:44;345.37;;;83.70;;
4132;SDS011;2080;51.038;7.008;2022-11-20T07:01:11;355.67;;;104.17;;
4132;SDS011;2080;51.038;7.008;2022-11-20T07:03:39;346.50;;;104.50;;
4132;SDS011;2080;51.038;7.008;2022-11-20T07:06:04;367.80;;;112.33;;
4132;SDS011;2080;51.038;7.008;2022-11-20T07:08:30;385.63;;;134.10;;
4132;SDS011;2080;51.038;7.008;2022-11-20T07:10:59;366.83;;;123.20;;
4132;SDS011;2080;51.038;7.008;2022-11-20T07:13:25;349.90;;;123.77;;
4132;SDS011;2080;51.038;7.008;2022-11-20T07:15:50;358.10;;;129.47;;
4132;SDS011;2080;51.038;7.008;2022-11-20T07:18:15;354.17;;;126.73;;
4132;SDS011;2080;51.038;7.008;2022-11-20T07:20:40;353.27;;;130.47;;
4132;SDS011;2080;51.038;7.008;2022-11-20T07:23:06;348.20;;;116.10;;
4132;SDS011;2080;51.038;7.008;2022-11-20T07:25:31;345.90;;;96.27;;
4132;SDS011;2080;51.038;7.008;2022-11-20T07:27:57;329.47;;;101.60;;
4132;SDS011;2080;51.038;7.008;2022-11-20T07:30:23;375.03;;;154.57;;
4132;SDS011;2080;51.038;7.008;2022-11-20T07:32:51;375.63;;;153.97;;
4132;SDS011;2080;51.038;7.008;2022-11-20T07:35:17;383.77;;;153.43;;
4132;SDS011;2080;51.038;7.008;2022-11-20T07:37:42;381.27;;;164.27;;
4132;SDS011;2080;51.038;7.008;2022-11-20T07:40:07;382.20;;;158.13;;
4132;SDS011;2080;51.038;7.008;2022-11-20T07:42:32;382.63;;;165.63;;
4132;SDS011;2080;51.038;7.008;2022-11-20T07:44:58;379.70;;;154.57;;
4132;SDS011;2080;51.038;7.008;2022-11-20T07:47:23;398.17;;;169.33;;
4132;SDS011;2080;51.038;7.008;2022-11-20T07:49:48;393.03;;;171.73;;
4132;SDS011;2080;51.038;7.008;2022-11-20T07:52:13;415.40;;;218.10;;
4132;SDS011;2080;51.038;7.008;2022-11-20T07:54:41;401.87;;;211.60;;
4132;SDS011;2080;51.038;7.008;2022-11-20T07:57:06;414.20;;;230.30;;
4132;SDS011;2080;51.038;7.008;2022-11-20T07:59:31;419.13;;;243.10;;
4132;SDS011;2080;51.038;7.008;2022-11-20T08:01:56;427.87;;;260.90;;
4132;SDS011;2080;51.038;7.008;2022-11-20T08:04:21;426.23;;;254.70;;
4132;SDS011;2080;51.038;7.008;2022-11-20T08:06:48;417.20;;;232.90;;
4132;SDS011;2080;51.038;7.008;2022-11-20T08:09:15;383.83;;;164.43;;
4132;SDS011;2080;51.038;7.008;2022-11-20T08:11:43;403.00;;;202.23;;
4132;SDS011;2080;51.038;7.008;2022-11-20T08:14:27;398.27;;;204.77;;
4132;SDS011;2080;51.038;7.008;2022-11-20T08:16:52;422.57;;;247.40;;
4132;SDS011;2080;51.038;7.008;2022-11-20T08:19:18;350.50;;;123.07;;
4132;SDS011;2080;51.038;7.008;2022-11-20T08:21:43;326.50;;;72.07;;
4132;SDS011;2080;51.038;7.008;2022-11-20T08:24:09;306.80;;;46.30;;
4132;SDS011;2080;51.038;7.008;2022-11-20T08:26:35;310.80;;;51.53;;
4132;SDS011;2080;51.038;7.008;2022-11-20T08:29:00;309.60;;;57.97;;
4132;SDS011;2080;51.038;7.008;2022-11-20T08:31:26;317.67;;;63.47;;
4132;SDS011;2080;51.038;7.008;2022-11-20T08:33:52;315.40;;;60.20;;
4132;SDS011;2080;51.038;7.008;2022-11-20T08:36:20;305.60;;;52.23;;
4132;SDS011;2080;51.038;7.008;2022-11-20T08:38:48;312.37;;;50.83;;
4132;SDS011;2080;51.038;7.008;2022-11-20T08:41:14;308.43;;;54.87;;
4132;SDS011;2080;51.038;7.008;2022-11-20T08:44:02;306.43;;;58.50;;
4132;SDS011;2080;51.038;7.008;2022-11-20T08:46:30;313.03;;;65.27;;
4132;SDS011;2080;51.038;7.008;2022-11-20T08:48:55;312.07;;;59.43;;
4132;SDS011;2080;51.038;7.008;2022-11-20T08:51:21;321.10;;;58.97;;
4132;SDS011;2080;51.038;7.008;2022-11-20T08:53:46;317.47;;;64.50;;
4132;SDS011;2080;51.038;7.008;2022-11-20T08:56:13;340.60;;;78.63;;
4132;SDS011;2080;51.038;7.008;2022-11-20T08:58:39;333.30;;;98.23;;
4132;SDS011;2080;51.038;7.008;2022-11-20T09:01:04;314.47;;;59.57;;
4132;SDS011;2080;51.038;7.008;2022-11-20T09:03:29;308.17;;;60.47;;
4132;SDS011;2080;51.038;7.008;2022-11-20T09:05:58;307.83;;;58.47;;
4132;SDS011;2080;51.038;7.008;2022-11-20T09:08:24;321.07;;;73.33;;
4132;SDS011;2080;51.038;7.008;2022-11-20T09:10:52;318.13;;;80.10;;
4132;SDS011;2080;51.038;7.008;2022-11-20T09:13:18;319.70;;;70.77;;
4132;SDS011;2080;51.038;7.008;2022-11-20T09:15:43;325.47;;;65.67;;
4132;SDS011;2080;51.038;7.008;2022-11-20T09:18:11;331.10;;;97.70;;
4132;SDS011;2080;51.038;7.008;2022-11-20T09:20:36;329.87;;;87.87;;
4132;SDS011;2080;51.038;7.008;2022-11-20T09:23:01;336.97;;;86.13;;
4132;SDS011;2080;51.038;7.008;2022-11-20T09:25:27;340.53;;;100.80;;
4132;SDS011;2080;51.038;7.008;2022-11-20T09:27:58;318.27;;;89.23;;
4132;SDS011;2080;51.038;7.008;2022-11-20T09:30:23;334.13;;;94.43;;
4132;SDS011;2080;51.038;7.008;2022-11-20T09:32:51;318.97;;;72.73;;
4132;SDS011;2080;51.038;7.008;2022-11-20T09:35:16;318.63;;;61.70;;
4132;SDS011;2080;51.038;7.008;2022-11-20T09:37:42;338.90;;;114.23;;
4132;SDS011;2080;51.038;7.008;2022-11-20T09:40:12;346.53;;;107.40;;
4132;SDS011;2080;51.038;7.008;2022-11-20T09:42:46;341.60;;;109.37;;
4132;SDS011;2080;51.038;7.008;2022-11-20T09:55:33;362.93;;;95.37;;
4132;SDS011;2080;51.038;7.008;2022-11-20T09:57:59;346.83;;;113.83;;
4132;SDS011;2080;51.038;7.008;2022-11-20T10:00:24;327.80;;;83.00;;
4132;SDS011;2080;51.038;7.008;2022-11-20T10:05:21;320.50;;;62.37;;
4132;SDS011;2080;51.038;7.008;2022-11-20T10:10:33;349.90;;;127.40;;
4132;SDS011;2080;51.038;7.008;2022-11-20T10:18:06;350.43;;;118.67;;
4132;SDS011;2080;51.038;7.008;2022-11-20T10:20:49;345.33;;;108.63;;
4132;SDS011;2080;51.038;7.008;2022-11-20T10:26:04;374.73;;;170.47;;
4132;SDS011;2080;51.038;7.008;2022-11-20T10:34:00;396.93;;;221.47;;
4132;SDS011;2080;51.038;7.008;2022-11-20T10:36:28;406.63;;;183.00;;
4132;SDS011;2080;51.038;7.008;2022-11-20T10:39:03;379.70;;;157.03;;
4132;SDS011;2080;51.038;7.008;2022-11-20T10:41:32;403.60;;;194.77;;
4132;SDS011;2080;51.038;7.008;2022-11-20T10:44:08;370.53;;;141.70;;
4132;SDS011;2080;51.038;7.008;2022-11-20T10:46:38;374.60;;;134.37;;
4132;SDS011;2080;51.038;7.008;2022-11-20T10:49:12;355.53;;;128.73;;
4132;SDS011;2080;51.038;7.008;2022-11-20T10:54:29;361.80;;;148.33;;
4132;SDS011;2080;51.038;7.008;2022-11-20T10:57:00;369.40;;;139.47;;
4132;SDS011;2080;51.038;7.008;2022-11-20T11:01:53;374.80;;;119.70;;
4132;SDS011;2080;51.038;7.008;2022-11-20T11:06:56;376.73;;;160.47;;
4132;SDS011;2080;51.038;7.008;2022-11-20T11:09:26;378.53;;;179.70;;
4132;SDS011;2080;51.038;7.008;2022-11-20T11:11:55;388.57;;;180.07;;
4132;SDS011;2080;51.038;7.008;2022-11-20T11:14:20;379.97;;;164.47;;
4132;SDS011;2080;51.038;7.008;2022-11-20T11:16:52;406.03;;;184.23;;
4132;SDS011;2080;51.038;7.008;2022-11-20T11:19:17;381.27;;;165.70;;
4132;SDS011;2080;51.038;7.008;2022-11-20T11:21:49;396.20;;;199.73;;
4132;SDS011;2080;51.038;7.008;2022-11-20T11:24:20;392.83;;;173.70;;
4132;SDS011;2080;51.038;7.008;2022-11-20T11:26:59;394.30;;;200.17;;
4132;SDS011;2080;51.038;7.008;2022-11-20T11:29:24;401.00;;;203.37;;
4132;SDS011;2080;51.038;7.008;2022-11-20T11:32:07;395.53;;;191.13;;
4132;SDS011;2080;51.038;7.008;2022-11-20T11:34:33;406.23;;;220.07;;
4132;SDS011;2080;51.038;7.008;2022-11-20T11:36:58;397.70;;;192.03;;
4132;SDS011;2080;51.038;7.008;2022-11-20T11:39:27;466.03;;;354.67;;
4132;SDS011;2080;51.038;7.008;2022-11-20T11:41:53;385.83;;;173.67;;
4132;SDS011;2080;51.038;7.008;2022-11-20T11:44:30;396.57;;;194.23;;
4132;SDS011;2080;51.038;7.008;2022-11-20T11:47:25;403.63;;;200.10;;
4132;SDS011;2080;51.038;7.008;2022-11-20T11:50:02;419.23;;;233.37;;
4132;SDS011;2080;51.038;7.008;2022-11-20T11:52:27;406.20;;;203.80;;
4132;SDS011;2080;51.038;7.008;2022-11-20T11:55:00;393.67;;;198.40;;
4132;SDS011;2080;51.038;7.008;2022-11-20T11:59:58;390.73;;;173.70;;
4132;SDS011;2080;51.038;7.008;2022-11-20T12:05:15;398.33;;;168.00;;
4132;SDS011;2080;51.038;7.008;2022-11-20T12:07:42;425.20;;;233.37;;
4132;SDS011;2080;51.038;7.008;2022-11-20T12:10:15;411.40;;;229.70;;
4132;SDS011;2080;51.038;7.008;2022-11-20T12:12:43;378.10;;;156.33;;
4132;SDS011;2080;51.038;7.008;2022-11-20T12:15:10;386.03;;;181.90;;
4132;SDS011;2080;51.038;7.008;2022-11-20T12:17:36;455.70;;;336.77;;
4132;SDS011;2080;51.038;7.008;2022-11-20T12:20:05;394.07;;;149.33;;
4132;SDS011;2080;51.038;7.008;2022-11-20T12:25:15;415.60;;;241.30;;
4132;SDS011;2080;51.038;7.008;2022-11-20T12:30:14;392.23;;;196.80;;
4132;SDS011;2080;51.038;7.008;2022-11-20T12:43:04;403.77;;;216.47;;
4132;SDS011;2080;51.038;7.008;2022-11-20T12:45:54;411.60;;;232.33;;
4132;SDS011;2080;51.038;7.008;2022-11-20T12:50:56;395.90;;;202.07;;
4132;SDS011;2080;51.038;7.008;2022-11-20T12:56:12;373.90;;;153.33;;
4132;SDS011;2080;51.038;7.008;2022-11-20T12:59:02;358.23;;;94.47;;
4132;SDS011;2080;51.038;7.008;2022-11-20T13:01:34;362.53;;;140.53;;
4132;SDS011;2080;51.038;7.008;2022-11-20T13:06:49;350.00;;;89.07;;
4132;SDS011;2080;51.038;7.008;2022-11-20T13:09:15;398.80;;;166.93;;
4132;SDS011;2080;51.038;7.008;2022-11-20T13:11:55;376.33;;;165.37;;
4132;SDS011;2080;51.038;7.008;2022-11-20T13:14:25;407.13;;;203.80;;
4132;SDS011;2080;51.038;7.008;2022-11-20T13:16:58;419.47;;;244.13;;
4132;SDS011;2080;51.038;7.008;2022-11-20T13:19:25;414.80;;;247.97;;
4132;SDS011;2080;51.038;7.008;2022-11-20T13:21:52;416.23;;;201.23;;
4132;SDS011;2080;51.038;7.008;2022-11-20T13:29:26;398.20;;;204.03;;
4132;SDS011;2080;51.038;7.008;2022-11-20T13:31:51;395.20;;;203.47;;
4132;SDS011;2080;51.038;7.008;2022-11-20T13:34:27;383.63;;;180.90;;
4132;SDS011;2080;51.038;7.008;2022-11-20T13:36:53;391.40;;;194.93;;
4132;SDS011;2080;51.038;7.008;2022-11-20T13:39:25;403.10;;;233.00;;
4132;SDS011;2080;51.038;7.008;2022-11-20T13:41:54;404.50;;;184.70;;
4132;SDS011;2080;51.038;7.008;2022-11-20T13:46:51;394.20;;;193.47;;
4132;SDS011;2080;51.038;7.008;2022-11-20T14:00:13;385.77;;;207.10;;
4132;SDS011;2080;51.038;7.008;2022-11-20T14:02:39;376.70;;;172.03;;
4132;SDS011;2080;51.038;7.008;2022-11-20T14:05:13;397.20;;;212.77;;
4132;SDS011;2080;51.038;7.008;2022-11-20T14:07:43;372.40;;;164.57;;
4132;SDS011;2080;51.038;7.008;2022-11-20T14:10:25;383.03;;;148.13;;
4132;SDS011;2080;51.038;7.008;2022-11-20T14:12:51;729.47;;;661.20;;
4132;SDS011;2080;51.038;7.008;2022-11-20T14:17:52;405.37;;;211.97;;
4132;SDS011;2080;51.038;7.008;2022-11-20T14:20:20;397.30;;;224.03;;
4132;SDS011;2080;51.038;7.008;2022-11-20T14:22:53;427.77;;;224.37;;
4132;SDS011;2080;51.038;7.008;2022-11-20T14:25:19;408.43;;;176.43;;
4132;SDS011;2080;51.038;7.008;2022-11-20T14:27:50;389.40;;;158.60;;
4132;SDS011;2080;51.038;7.008;2022-11-20T14:30:17;392.80;;;139.70;;
4132;SDS011;2080;51.038;7.008;2022-11-20T14:32:45;543.60;;;432.87;;
4132;SDS011;2080;51.038;7.008;2022-11-20T14:35:21;406.30;;;213.20;;
4132;SDS011;2080;51.038;7.008;2022-11-20T14:37:48;427.60;;;257.50;;
4132;SDS011;2080;51.038;7.008;2022-11-20T14:40:29;372.63;;;155.93;;
4132;SDS011;2080;51.038;7.008;2022-11-20T14:42:55;378.07;;;166.00;;
4132;SDS011;2080;51.038;7.008;2022-11-20T14:45:25;386.37;;;164.57;;
4132;SDS011;2080;51.038;7.008;2022-11-20T14:47:51;378.17;;;177.53;;
4132;SDS011;2080;51.038;7.008;2022-11-20T14:50:24;347.17;;;106.90;;
4132;SDS011;2080;51.038;7.008;2022-11-20T14:52:50;350.13;;;110.63;;
4132;SDS011;2080;51.038;7.008;2022-11-20T14:55:37;426.73;;;249.87;;
4132;SDS011;2080;51.038;7.008;2022-11-20T14:58:03;387.73;;;190.67;;
4132;SDS011;2080;51.038;7.008;2022-11-20T15:00:29;384.17;;;187.13;;
4132;SDS011;2080;51.038;7.008;2022-11-20T15:02:55;392.90;;;161.63;;
4132;SDS011;2080;51.038;7.008;2022-11-20T15:05:21;368.37;;;148.70;;
4132;SDS011;2080;51.038;7.008;2022-11-20T15:07:50;383.83;;;150.27;;
4132;SDS011;2080;51.038;7.008;2022-11-20T15:10:20;369.43;;;142.37;;
4132;SDS011;2080;51.038;7.008;2022-11-20T15:12:47;370.83;;;132.53;;
4132;SDS011;2080;51.038;7.008;2022-11-20T15:15:59;379.03;;;155.93;;
4132;SDS011;2080;51.038;7.008;2022-11-20T15:17:59;384.30;;;172.10;;
4132;SDS011;2080;51.038;7.008;2022-11-20T15:20:25;422.90;;;259.20;;
4132;SDS011;2080;51.038;7.008;2022-11-20T15:22:51;443.90;;;319.37;;
4132;SDS011;2080;51.038;7.008;2022-11-20T15:25:17;455.73;;;330.57;;
4132;SDS011;2080;51.038;7.008;2022-11-20T15:27:42;440.53;;;298.93;;
4132;SDS011;2080;51.038;7.008;2022-11-20T15:30:15;432.87;;;278.80;;
4132;SDS011;2080;51.038;7.008;2022-11-20T15:32:43;455.77;;;316.20;;
4132;SDS011;2080;51.038;7.008;2022-11-20T15:35:09;436.53;;;289.87;;
4132;SDS011;2080;51.038;7.008;2022-11-20T15:37:34;433.80;;;308.90;;
4132;SDS011;2080;51.038;7.008;2022-11-20T15:40:00;458.07;;;312.80;;
4132;SDS011;2080;51.038;7.008;2022-11-20T15:42:27;429.20;;;285.90;;
4132;SDS011;2080;51.038;7.008;2022-11-20T15:44:55;415.40;;;276.57;;
4132;SDS011;2080;51.038;7.008;2022-11-20T15:47:21;429.80;;;260.13;;
4132;SDS011;2080;51.038;7.008;2022-11-20T15:49:48;408.30;;;233.10;;
4132;SDS011;2080;51.038;7.008;2022-11-20T15:52:14;419.37;;;237.40;;
4132;SDS011;2080;51.038;7.008;2022-11-20T15:54:42;413.60;;;203.67;;
4132;SDS011;2080;51.038;7.008;2022-11-20T15:57:07;400.23;;;192.37;;
4132;SDS011;2080;51.038;7.008;2022-11-20T15:59:35;422.10;;;208.60;;
4132;SDS011;2080;51.038;7.008;2022-11-20T16:02:08;417.40;;;185.87;;
4132;SDS011;2080;51.038;7.008;2022-11-20T16:04:36;395.33;;;139.43;;